Raft Island, Washington
Current Conditions -  °F | °C
As of 7:53 PM on Wednesday 28 Jan 2015 (Local Time) from KTIW Reporting Station
Clear Clear  
Wind Chill: 46°   Ceiling: Unl
Heat Index: 46°   Visibility: 10mi
Dew Point: 43°   Wind: 3mph
Humidity: 89%   Direction: 20°NNE
Pressure: 30.36"   Gusts: NA
Location:  47.2986°N, 122.616°W
Report Text: KTIW 290353Z 02003KT 10SM CLR 08/06 A3036 RMK AO2 SLP282 T00780061
Loading
Personal Weather Stations






























Interactive Weather Map New forecast layout! Learn more

10-Day Weather Forecast

Advertisements
Track Severe Weather on mobile